Time;durP1;ratioP1;P1;durP2;ratioP2;P2;SDS_P1;SDS_P2;PMS_P1;PMS_P2;Temp;Humidity;BMP_temperature;BMP_pressure;BME280_temperature;BME280_humidity;BME280_pressure;Samples;Min_cycle;Max_cycle;Signal;HPM_P1;HPM_P2
2021/12/26 00:01:21;;;;;;;1.93;0.80;;;-3.50;99.90;;;;;;4842936;29;20072;-79
2021/12/26 00:03:48;;;;;;;2.50;0.80;;;-3.50;99.90;;;;;;4858985;29;20045;-81
2021/12/26 00:06:19;;;;;;;2.50;0.87;;;-3.50;99.90;;;;;;4846383;29;20041;-81
2021/12/26 00:08:47;;;;;;;1.90;0.70;;;-3.50;99.90;;;;;;4857805;29;20044;-82
2021/12/26 00:11:13;;;;;;;2.73;0.90;;;-3.50;99.90;;;;;;4831066;29;20045;-81
2021/12/26 00:13:41;;;;;;;1.80;0.90;;;-3.50;99.90;;;;;;4850460;29;20504;-81
2021/12/26 00:16:08;;;;;;;2.80;0.90;;;-3.50;99.90;;;;;;4854121;29;20053;-80
2021/12/26 00:18:36;;;;;;;3.17;0.80;;;-3.50;99.90;;;;;;4858290;29;20049;-80
2021/12/26 00:21:03;;;;;;;3.13;0.80;;;-3.50;99.90;;;;;;4870380;29;20048;-82
2021/12/26 00:23:31;;;;;;;2.87;0.70;;;-3.50;99.90;;;;;;4845356;29;20037;-81
2021/12/26 00:25:58;;;;;;;2.67;0.80;;;-3.50;99.90;;;;;;4857618;29;20048;-80
2021/12/26 00:28:24;;;;;;;2.30;0.90;;;-3.60;99.90;;;;;;4824909;29;20140;-81
2021/12/26 00:30:51;;;;;;;1.93;0.80;;;-3.60;99.90;;;;;;4874916;29;20037;-82
2021/12/26 00:33:17;;;;;;;3.17;1.10;;;-3.50;99.90;;;;;;4845671;29;20041;-82
2021/12/26 00:35:44;;;;;;;2.50;0.80;;;-3.50;99.90;;;;;;4872391;29;20040;-83
2021/12/26 00:38:12;;;;;;;3.63;0.77;;;-3.50;99.90;;;;;;4873577;29;20056;-82
2021/12/26 00:40:40;;;;;;;2.37;0.90;;;-3.60;99.90;;;;;;4858616;29;20037;-82
2021/12/26 00:43:07;;;;;;;2.07;0.67;;;-3.50;99.90;;;;;;4869839;29;20036;-83
2021/12/26 00:45:34;;;;;;;1.93;0.70;;;-3.60;99.90;;;;;;4854738;29;20044;-82
2021/12/26 00:48:02;;;;;;;4.40;0.97;;;-3.60;99.90;;;;;;4875999;29;20047;-80
2021/12/26 00:50:30;;;;;;;15.80;4.50;;;-3.60;99.90;;;;;;4846102;29;20068;-80
2021/12/26 00:52:57;;;;;;;4.10;1.63;;;-3.60;99.90;;;;;;4828559;29;20044;-80
2021/12/26 00:55:27;;;;;;;4.73;0.93;;;-3.60;99.90;;;;;;4868517;29;20052;-81
2021/12/26 00:57:54;;;;;;;4.10;0.80;;;-3.60;99.90;;;;;;4851338;29;20060;-83
2021/12/26 01:00:24;;;;;;;1.93;0.87;;;-3.60;99.90;;;;;;4839825;29;20045;-82
2021/12/26 01:02:52;;;;;;;4.47;0.93;;;-3.60;99.90;;;;;;4843316;29;20051;-82
2021/12/26 01:05:21;;;;;;;2.37;0.77;;;-3.70;99.90;;;;;;4855573;29;20053;-83
2021/12/26 01:10:17;;;;;;;3.80;0.93;;;-3.60;99.90;;;;;;4868570;29;20044;-81
2021/12/26 01:12:44;;;;;;;1.93;0.70;;;-3.60;99.90;;;;;;4833048;29;20041;-81
2021/12/26 01:15:12;;;;;;;2.73;0.80;;;-3.60;99.90;;;;;;4850335;29;20045;-79
2021/12/26 01:17:45;;;;;;;2.10;0.60;;;-3.70;99.90;;;;;;4835116;29;20088;-81
2021/12/26 01:20:29;;;;;;;2.83;0.80;;;-3.70;99.90;;;;;;4860419;29;20033;-79
2021/12/26 01:22:57;;;;;;;2.35;0.70;;;-3.70;99.90;;;;;;4875031;29;20502;-80
2021/12/26 01:25:24;;;;;;;1.43;0.70;;;-3.70;99.90;;;;;;4854630;29;20041;-79
2021/12/26 01:27:50;;;;;;;1.50;0.80;;;-3.70;99.90;;;;;;4874360;29;20049;-79
2021/12/26 01:30:17;;;;;;;2.83;0.87;;;-3.70;99.90;;;;;;4858578;29;20148;-78
2021/12/26 01:32:47;;;;;;;2.07;0.80;;;-3.70;99.90;;;;;;4826076;29;20049;-82
2021/12/26 01:35:34;;;;;;;6.70;1.67;;;-3.70;99.90;;;;;;4851690;29;20069;-82
2021/12/26 01:38:29;;;;;;;2.27;0.70;;;-3.70;99.90;;;;;;4835031;29;20041;-81
2021/12/26 01:41:10;;;;;;;1.17;0.70;;;-3.70;99.90;;;;;;4858916;29;20044;-79
2021/12/26 01:44:03;;;;;;;2.07;0.70;;;-3.70;99.90;;;;;;4830185;29;20044;-80
2021/12/26 01:46:36;;;;;;;;;;;-3.70;99.90;;;;;;4857249;29;20048;-81
2021/12/26 01:49:09;;;;;;;1.60;0.70;;;-3.70;99.90;;;;;;4842848;29;19935;-83
2021/12/26 01:51:38;;;;;;;2.67;0.87;;;-3.70;99.90;;;;;;4867129;29;20037;-81
2021/12/26 01:54:11;;;;;;;1.77;0.80;;;-3.70;99.90;;;;;;4858587;29;20057;-82
2021/12/26 01:56:41;;;;;;;3.80;0.83;;;-3.70;99.90;;;;;;4853943;29;20045;-83
2021/12/26 01:59:11;;;;;;;1.73;0.80;;;-3.70;99.90;;;;;;4859529;29;20044;-82
2021/12/26 02:01:42;;;;;;;2.60;0.87;;;-3.70;99.90;;;;;;4854095;29;20140;-82
2021/12/26 02:04:09;;;;;;;1.77;0.70;;;-3.70;99.90;;;;;;4853901;29;20487;-81
2021/12/26 02:06:35;;;;;;;1.70;0.73;;;-3.70;99.90;;;;;;4849850;29;20033;-83
2021/12/26 02:09:03;;;;;;;2.83;0.87;;;-3.70;99.90;;;;;;4841004;29;20497;-83
2021/12/26 02:11:31;;;;;;;1.87;0.70;;;-3.70;99.90;;;;;;4871578;29;20056;-80
2021/12/26 02:13:59;;;;;;;1.77;0.80;;;-3.70;99.90;;;;;;4831472;29;20033;-81
2021/12/26 02:16:31;;;;;;;1.80;0.68;;;-3.70;99.90;;;;;;4830983;29;20041;-80
2021/12/26 02:18:58;;;;;;;2.83;0.70;;;-3.70;99.90;;;;;;4855569;29;20047;-81
2021/12/26 02:21:58;;;;;;;3.17;0.80;;;-3.70;99.90;;;;;;4871781;29;20432;-81
2021/12/26 02:24:57;;;;;;;2.13;0.80;;;-3.70;99.90;;;;;;4845320;29;20048;-82
2021/12/26 02:27:32;;;;;;;2.33;0.70;;;-3.80;99.90;;;;;;4872795;29;20497;-83
2021/12/26 02:30:11;;;;;;;1.97;0.67;;;-3.80;99.90;;;;;;4835726;29;20041;-81
2021/12/26 02:32:38;;;;;;;1.53;0.93;;;-3.80;99.90;;;;;;4861127;29;20492;-82
2021/12/26 02:35:05;;;;;;;4.30;1.07;;;-3.80;99.90;;;;;;4855975;29;20052;-82
2021/12/26 02:37:32;;;;;;;4.53;0.90;;;-3.80;99.90;;;;;;4871065;29;20521;-84
2021/12/26 02:39:59;;;;;;;1.80;0.60;;;-3.80;99.90;;;;;;4860057;29;20049;-83
2021/12/26 02:42:25;;;;;;;1.50;0.70;;;-3.80;99.90;;;;;;4871906;29;20041;-84
2021/12/26 02:44:53;;;;;;;3.00;1.00;;;-3.80;99.90;;;;;;4840232;29;20044;-84
2021/12/26 02:47:49;;;;;;;2.17;0.70;;;-3.80;99.90;;;;;;4854989;29;20041;-82
2021/12/26 02:50:25;;;;;;;2.30;0.80;;;-3.80;99.90;;;;;;4854259;29;20060;-82
2021/12/26 02:52:54;;;;;;;2.23;0.83;;;-3.80;99.90;;;;;;4841240;29;20049;-82
2021/12/26 02:55:23;;;;;;;2.57;0.53;;;-3.80;99.90;;;;;;4868858;29;20041;-81
2021/12/26 02:57:51;;;;;;;2.57;0.60;;;-3.80;99.90;;;;;;4852195;29;20417;-82
2021/12/26 03:00:20;;;;;;;2.20;1.17;;;-3.80;99.90;;;;;;4846534;29;20056;-80
2021/12/26 03:02:52;;;;;;;2.37;0.80;;;-3.80;99.90;;;;;;4868517;29;20044;-79
2021/12/26 03:05:21;;;;;;;1.47;0.60;;;-3.80;99.90;;;;;;4858476;29;20049;-82
2021/12/26 03:07:48;;;;;;;2.97;0.90;;;-3.80;99.90;;;;;;4874978;29;20049;-81
2021/12/26 03:10:21;;;;;;;2.37;0.60;;;-3.80;99.90;;;;;;4858399;29;20033;-79
2021/12/26 03:12:50;;;;;;;3.13;0.70;;;-3.80;99.90;;;;;;4857433;29;20041;-80
2021/12/26 03:15:17;;;;;;;3.17;0.70;;;-3.80;99.90;;;;;;4859382;29;20041;-79
2021/12/26 03:17:44;;;;;;;3.97;0.60;;;-3.90;99.90;;;;;;4861589;29;20044;-79
2021/12/26 03:20:12;;;;;;;3.03;0.70;;;-3.80;99.90;;;;;;4872341;29;20529;-80
2021/12/26 03:22:39;;;;;;;3.77;0.70;;;-3.90;99.90;;;;;;4831410;29;20045;-80
2021/12/26 03:25:16;;;;;;;2.20;0.70;;;-3.90;99.90;;;;;;4841748;29;20038;-79
2021/12/26 03:27:43;;;;;;;3.23;0.80;;;-3.90;99.90;;;;;;4864815;29;20045;-80
2021/12/26 03:30:19;;;;;;;3.90;1.20;;;-3.90;99.90;;;;;;4839215;29;20041;-80
2021/12/26 03:32:47;;;;;;;3.00;0.70;;;-3.90;99.90;;;;;;4851425;29;20037;-81
2021/12/26 03:35:14;;;;;;;2.00;0.63;;;-3.90;99.90;;;;;;4837783;29;20033;-81
2021/12/26 03:37:41;;;;;;;2.87;0.80;;;-3.90;99.90;;;;;;4866910;29;20037;-81
2021/12/26 03:40:28;;;;;;;3.53;0.73;;;-3.90;99.90;;;;;;4859699;29;20061;-80
2021/12/26 03:42:55;;;;;;;3.00;0.97;;;-3.90;99.90;;;;;;4854913;29;20496;-81
2021/12/26 03:45:22;;;;;;;2.10;0.80;;;-3.90;99.90;;;;;;4892750;29;20045;-81
2021/12/26 03:47:50;;;;;;;2.53;0.60;;;-3.90;99.90;;;;;;4855879;29;20044;-82
2021/12/26 03:50:20;;;;;;;2.03;0.70;;;-3.90;99.90;;;;;;4829936;29;20039;-81
2021/12/26 03:52:50;;;;;;;1.80;0.67;;;-4.00;99.90;;;;;;4884345;29;20044;-81
2021/12/26 03:55:18;;;;;;;1.60;0.70;;;-4.00;99.90;;;;;;4855864;29;20032;-81
2021/12/26 03:57:45;;;;;;;2.93;0.80;;;-4.00;99.90;;;;;;4853245;29;20058;-81
2021/12/26 04:00:14;;;;;;;2.60;0.60;;;-4.00;99.90;;;;;;4855311;29;20048;-81
2021/12/26 04:02:42;;;;;;;1.70;0.70;;;-4.00;99.90;;;;;;4867050;29;20474;-81
2021/12/26 04:05:10;;;;;;;2.57;1.03;;;-4.00;99.90;;;;;;4865714;29;20041;-81
2021/12/26 04:07:37;;;;;;;3.27;1.23;;;-4.00;99.90;;;;;;4850452;29;20489;-82
2021/12/26 04:10:06;;;;;;;3.10;1.13;;;-4.00;99.90;;;;;;4868574;29;20397;-80
2021/12/26 04:12:36;;;;;;;3.03;0.80;;;-4.00;99.90;;;;;;4880981;29;20048;-80
2021/12/26 04:15:11;;;;;;;2.80;0.70;;;-4.00;99.90;;;;;;4849696;29;20057;-81
2021/12/26 04:17:39;;;;;;;2.23;0.80;;;-4.00;99.90;;;;;;4884040;29;20041;-81
2021/12/26 04:20:07;;;;;;;2.00;0.80;;;-4.00;99.90;;;;;;4836880;29;20053;-80
2021/12/26 04:22:34;;;;;;;1.83;0.80;;;-4.00;99.90;;;;;;4879417;29;20048;-81
2021/12/26 04:25:04;;;;;;;1.50;0.60;;;-4.00;99.90;;;;;;4877515;29;20043;-81
2021/12/26 04:27:31;;;;;;;1.57;0.60;;;-4.00;99.90;;;;;;4848008;29;20478;-81
2021/12/26 04:29:57;;;;;;;1.87;0.50;;;-4.00;99.90;;;;;;4861856;29;20505;-81
2021/12/26 04:32:24;;;;;;;3.20;0.83;;;-4.00;99.90;;;;;;4862119;29;20044;-80
2021/12/26 04:34:51;;;;;;;1.60;0.70;;;-4.00;99.90;;;;;;4858160;29;20049;-81
2021/12/26 04:37:18;;;;;;;1.70;0.53;;;-4.00;99.90;;;;;;4856530;29;20522;-81
2021/12/26 04:39:45;;;;;;;1.83;0.60;;;-4.00;99.90;;;;;;4867095;29;20041;-81
2021/12/26 04:42:11;;;;;;;1.87;0.70;;;-4.00;99.90;;;;;;4842925;29;20037;-80
2021/12/26 04:44:52;;;;;;;2.30;0.60;;;-4.00;99.90;;;;;;4859588;29;20053;-81
2021/12/26 04:47:44;;;;;;;2.17;0.73;;;-4.00;99.90;;;;;;4862410;29;20040;-80
2021/12/26 04:50:15;;;;;;;3.13;0.70;;;-4.00;99.90;;;;;;4858540;29;20037;-80
2021/12/26 04:52:48;;;;;;;1.40;0.60;;;-4.00;99.90;;;;;;4854511;29;20112;-80
2021/12/26 04:55:22;;;;;;;2.77;0.70;;;-4.00;99.90;;;;;;4854789;29;20045;-79
2021/12/26 04:57:50;;;;;;;1.37;0.60;;;-4.00;99.90;;;;;;4849201;29;20049;-80
2021/12/26 05:00:20;;;;;;;2.10;0.80;;;-4.00;99.90;;;;;;4867395;29;20048;-80
2021/12/26 05:02:48;;;;;;;1.20;0.60;;;-4.00;99.90;;;;;;4857792;29;20041;-81
2021/12/26 05:05:14;;;;;;;3.20;1.00;;;-4.00;99.90;;;;;;4854509;29;20057;-81
2021/12/26 05:07:42;;;;;;;1.63;0.60;;;-4.00;99.90;;;;;;4856187;29;20037;-81
2021/12/26 05:10:13;;;;;;;2.37;0.80;;;-4.00;99.90;;;;;;4861296;29;20044;-80
2021/12/26 05:12:40;;;;;;;1.50;0.70;;;-4.00;99.90;;;;;;4850806;29;20041;-80
2021/12/26 05:15:08;;;;;;;1.67;0.60;;;-4.00;99.90;;;;;;4848983;29;20492;-81
2021/12/26 05:17:37;;;;;;;2.57;0.70;;;-4.00;99.90;;;;;;4867997;29;20084;-81
2021/12/26 05:20:08;;;;;;;2.10;0.50;;;-4.00;99.90;;;;;;4856273;29;20404;-80
2021/12/26 05:22:35;;;;;;;4.10;0.70;;;-4.00;99.90;;;;;;4863512;29;20405;-80
2021/12/26 05:25:06;;;;;;;1.93;0.70;;;-4.00;99.90;;;;;;4854459;29;20504;-80
2021/12/26 05:27:48;;;;;;;2.23;0.50;;;-4.00;99.90;;;;;;4854707;29;20041;-80
2021/12/26 05:30:30;;;;;;;1.63;0.70;;;-4.00;99.90;;;;;;4852343;29;20044;-81
2021/12/26 05:33:19;;;;;;;2.23;0.60;;;-4.00;99.90;;;;;;4855373;29;20038;-81
2021/12/26 05:35:50;;;;;;;3.50;0.60;;;-4.00;99.90;;;;;;4854578;29;20050;-81
2021/12/26 05:38:17;;;;;;;1.63;0.40;;;-4.00;99.90;;;;;;4865753;29;20045;-80
2021/12/26 05:40:47;;;;;;;2.67;0.70;;;-4.00;99.90;;;;;;4857298;29;20041;-81
2021/12/26 05:43:13;;;;;;;1.60;0.77;;;-4.00;99.90;;;;;;4845313;29;20033;-82
2021/12/26 05:45:40;;;;;;;2.10;0.80;;;-4.00;99.90;;;;;;4842303;29;20041;-80
2021/12/26 05:48:13;;;;;;;1.70;0.60;;;-4.00;99.90;;;;;;4841966;29;20048;-80
2021/12/26 05:50:40;;;;;;;1.73;0.60;;;-4.00;99.90;;;;;;4856411;29;20029;-80
2021/12/26 05:53:14;;;;;;;2.27;0.87;;;-4.00;99.90;;;;;;4856106;29;20041;-79
2021/12/26 05:55:41;;;;;;;3.27;0.80;;;-4.00;99.90;;;;;;4841276;29;20037;-79
2021/12/26 05:58:08;;;;;;;2.73;0.70;;;-4.00;99.90;;;;;;4836835;29;20057;-79
2021/12/26 06:00:35;;;;;;;1.60;0.60;;;-3.90;99.90;;;;;;4827417;29;20069;-80
2021/12/26 06:03:02;;;;;;;1.37;0.60;;;-3.90;99.90;;;;;;4822240;29;20054;-80
2021/12/26 06:05:29;;;;;;;2.03;0.63;;;-3.70;99.90;;;;;;4865379;29;20044;-80
2021/12/26 06:07:55;;;;;;;1.70;0.60;;;-3.70;99.90;;;;;;4857004;29;20048;-80
2021/12/26 06:10:22;;;;;;;2.07;0.93;;;-3.60;99.90;;;;;;4854654;29;20041;-79
2021/12/26 06:12:48;;;;;;;2.70;0.80;;;-3.50;99.90;;;;;;4856544;29;20045;-79
2021/12/26 06:15:15;;;;;;;1.40;0.80;;;-3.50;99.90;;;;;;4847346;29;20074;-79
2021/12/26 06:17:41;;;;;;;3.20;0.87;;;-3.40;99.90;;;;;;4871724;29;20036;-79
2021/12/26 06:20:27;;;;;;;1.63;0.60;;;-3.40;99.90;;;;;;4853237;29;20050;-79
2021/12/26 06:23:31;;;;;;;1.73;0.67;;;-3.30;99.90;;;;;;4810551;29;20049;-79
2021/12/26 06:26:21;;;;;;;1.50;0.67;;;-3.20;99.90;;;;;;4854589;29;20493;-78
2021/12/26 06:28:48;;;;;;;1.67;0.77;;;-3.20;99.90;;;;;;4839669;29;20041;-79
2021/12/26 06:31:33;;;;;;;2.03;0.60;;;-3.20;99.90;;;;;;4866810;29;20029;-78
2021/12/26 06:34:18;;;;;;;1.93;0.60;;;-3.10;99.90;;;;;;4869709;29;20044;-79
2021/12/26 06:37:04;;;;;;;1.33;0.53;;;-3.00;99.90;;;;;;4848662;29;20045;-79
2021/12/26 06:39:49;;;;;;;2.70;0.80;;;-3.00;99.90;;;;;;4871110;29;20389;-79
2021/12/26 06:42:40;;;;;;;2.37;0.80;;;-3.00;99.90;;;;;;4854974;29;20501;-79
2021/12/26 06:45:24;;;;;;;2.67;0.80;;;-3.00;99.90;;;;;;4844271;29;20049;-79
2021/12/26 06:48:14;;;;;;;3.13;1.13;;;-2.90;99.90;;;;;;4873143;29;20493;-79
2021/12/26 06:50:44;;;;;;;2.67;1.20;;;-2.90;99.90;;;;;;4845207;29;20041;-75
2021/12/26 06:53:11;;;;;;;3.70;0.70;;;-3.00;99.90;;;;;;4863155;29;20034;-75
2021/12/26 06:55:38;;;;;;;3.10;0.80;;;-2.90;99.90;;;;;;4839086;29;20041;-75
2021/12/26 06:58:05;;;;;;;2.27;0.80;;;-2.90;99.90;;;;;;4853508;29;20413;-75
2021/12/26 07:00:32;;;;;;;3.13;0.90;;;-2.90;99.90;;;;;;4853893;29;20045;-75
2021/12/26 07:02:59;;;;;;;1.50;0.70;;;-2.90;99.90;;;;;;4852890;29;20052;-75
2021/12/26 07:05:25;;;;;;;5.00;0.70;;;-2.90;99.90;;;;;;4836017;29;20049;-75
2021/12/26 07:08:07;;;;;;;4.00;0.80;;;-2.90;99.90;;;;;;4866551;29;20065;-75
2021/12/26 07:10:35;;;;;;;1.83;1.03;;;-2.90;99.90;;;;;;4868733;29;20045;-75
2021/12/26 07:13:03;;;;;;;2.33;0.70;;;-2.90;99.90;;;;;;4842461;29;20045;-76
2021/12/26 07:15:35;;;;;;;1.80;0.90;;;-2.90;99.90;;;;;;4869900;29;20075;-75
2021/12/26 07:18:05;;;;;;;1.93;0.70;;;-2.90;99.90;;;;;;4856766;29;20045;-76
2021/12/26 07:20:35;;;;;;;3.22;0.70;;;-2.90;99.90;;;;;;4851907;29;20057;-76
2021/12/26 07:23:30;;;;;;;2.50;0.90;;;-2.80;99.90;;;;;;4851903;29;20075;-76
2021/12/26 07:26:05;;;;;;;1.93;0.90;;;-2.80;99.90;;;;;;4825581;29;20533;-75
2021/12/26 07:28:32;;;;;;;1.73;0.60;;;-2.80;99.90;;;;;;4857854;29;20037;-75
2021/12/26 07:31:13;;;;;;;2.67;0.90;;;-2.70;99.90;;;;;;4840472;29;20052;-76
2021/12/26 07:33:42;;;;;;;2.53;1.03;;;-2.70;99.90;;;;;;4857212;29;20096;-75
2021/12/26 07:36:09;;;;;;;2.23;0.70;;;-2.70;99.90;;;;;;4861768;29;20064;-75
2021/12/26 07:38:47;;;;;;;2.60;0.70;;;-2.70;99.90;;;;;;4822737;29;20053;-76
2021/12/26 07:41:14;;;;;;;1.80;0.80;;;-2.60;99.90;;;;;;4832241;29;20045;-75
2021/12/26 07:43:41;;;;;;;3.03;0.60;;;-2.60;99.90;;;;;;4841623;29;20041;-76
2021/12/26 07:46:26;;;;;;;2.53;1.07;;;-2.60;99.90;;;;;;4855725;29;20389;-76
2021/12/26 07:48:56;;;;;;;3.07;0.87;;;-2.60;99.90;;;;;;4826647;29;20041;-76
2021/12/26 07:51:41;;;;;;;2.00;0.80;;;-2.60;99.90;;;;;;4856673;29;20033;-75
2021/12/26 07:54:26;;;;;;;2.43;1.10;;;-2.60;99.90;;;;;;4847333;29;20071;-75
2021/12/26 07:57:13;;;;;;;1.60;0.80;;;-2.60;99.90;;;;;;4855027;29;20061;-75
2021/12/26 07:59:57;;;;;;;2.70;0.77;;;-2.60;99.90;;;;;;4847227;29;20045;-75
2021/12/26 08:02:43;;;;;;;2.57;1.00;;;-2.60;99.90;;;;;;4829129;29;20335;-75
2021/12/26 08:05:28;;;;;;;4.30;0.90;;;-2.60;99.90;;;;;;4858268;29;20045;-75
2021/12/26 08:08:08;;;;;;;3.97;0.90;;;-2.60;99.90;;;;;;4856654;29;20043;-75
2021/12/26 08:10:35;;;;;;;3.47;0.87;;;-2.60;99.90;;;;;;4856136;29;20037;-76
2021/12/26 08:13:02;;;;;;;1.80;0.90;;;-2.70;99.90;;;;;;4836857;29;20038;-77
2021/12/26 08:15:28;;;;;;;3.53;0.97;;;-2.70;99.90;;;;;;4840198;29;20116;-75
2021/12/26 08:17:55;;;;;;;3.17;0.80;;;-2.70;99.90;;;;;;4860351;29;20053;-75
2021/12/26 08:20:22;;;;;;;2.83;0.90;;;-2.70;99.90;;;;;;4844024;29;20401;-76
2021/12/26 08:22:48;;;;;;;16.10;8.70;;;-2.70;99.90;;;;;;4870585;29;20544;-76
2021/12/26 08:25:15;;;;;;;2.37;1.00;;;-2.70;99.90;;;;;;4829902;29;20504;-76
2021/12/26 08:27:41;;;;;;;3.13;0.93;;;-2.70;99.90;;;;;;4843083;29;20465;-77
2021/12/26 08:30:09;;;;;;;4.00;0.90;;;-2.70;99.90;;;;;;4855963;29;20137;-79
2021/12/26 08:32:38;;;;;;;3.33;1.17;;;-2.70;99.90;;;;;;4868572;29;20515;-79
2021/12/26 08:35:07;;;;;;;2.37;0.60;;;-2.70;99.90;;;;;;4852195;29;20040;-79
2021/12/26 08:37:37;;;;;;;2.30;0.70;;;-2.70;99.90;;;;;;4842206;29;20045;-75
2021/12/26 08:40:04;;;;;;;3.03;0.80;;;-2.70;99.90;;;;;;4842105;29;20041;-75
2021/12/26 08:42:30;;;;;;;5.77;0.90;;;-2.60;99.90;;;;;;4860061;29;21039;-76
2021/12/26 08:44:59;;;;;;;3.23;0.87;;;-2.50;99.90;;;;;;4840397;29;20524;-76
2021/12/26 08:47:26;;;;;;;1.97;0.90;;;-2.50;99.90;;;;;;4841312;29;20335;-76
2021/12/26 08:49:53;;;;;;;3.90;1.00;;;-2.40;99.90;;;;;;4857523;29;20049;-76
2021/12/26 08:52:19;;;;;;;3.57;1.27;;;-2.40;99.90;;;;;;4865612;29;20481;-75
2021/12/26 08:54:46;;;;;;;2.40;0.63;;;-2.30;99.90;;;;;;4867687;29;20048;-76
2021/12/26 08:57:15;;;;;;;2.83;1.43;;;-2.30;99.90;;;;;;4861692;29;21303;-76
2021/12/26 08:59:42;;;;;;;3.00;1.10;;;-2.30;99.90;;;;;;4865331;29;20041;-80
2021/12/26 09:02:09;;;;;;;3.17;1.10;;;-2.30;99.90;;;;;;4840771;29;20045;-80
2021/12/26 09:04:38;;;;;;;2.27;1.00;;;-2.30;99.90;;;;;;4855774;29;20061;-80
2021/12/26 09:07:06;;;;;;;1.83;0.70;;;-2.30;99.90;;;;;;4842493;29;20053;-79
2021/12/26 09:09:32;;;;;;;2.40;1.10;;;-2.30;99.90;;;;;;4859964;29;20048;-80
2021/12/26 09:11:59;;;;;;;1.97;0.80;;;-2.30;99.90;;;;;;4840327;29;20042;-79
2021/12/26 09:14:30;;;;;;;1.93;0.90;;;-2.30;99.90;;;;;;4870708;29;20354;-79
2021/12/26 09:16:57;;;;;;;3.33;1.30;;;-2.20;99.90;;;;;;4842560;29;20052;-75
2021/12/26 09:19:27;;;;;;;3.17;1.57;;;-2.20;99.90;;;;;;4853181;29;20075;-76
2021/12/26 09:22:00;;;;;;;2.13;1.10;;;-2.20;99.90;;;;;;4838443;29;20397;-78
2021/12/26 09:24:27;;;;;;;2.53;1.50;;;-2.20;99.90;;;;;;4826004;29;20045;-78
2021/12/26 09:26:53;;;;;;;3.30;0.90;;;-2.20;99.90;;;;;;4872450;29;20037;-76
2021/12/26 09:29:20;;;;;;;4.27;2.07;;;-2.10;99.90;;;;;;4860333;29;20499;-76
2021/12/26 09:31:47;;;;;;;3.20;1.50;;;-2.10;99.90;;;;;;4848544;29;20393;-77
2021/12/26 09:34:16;;;;;;;2.37;1.43;;;-2.00;99.90;;;;;;4842584;29;20576;-76
2021/12/26 09:36:44;;;;;;;2.13;0.97;;;-1.90;99.90;;;;;;4860329;29;20029;-76
2021/12/26 09:39:11;;;;;;;3.13;1.03;;;-1.90;99.90;;;;;;4861150;29;20503;-77
2021/12/26 09:41:38;;;;;;;2.03;0.97;;;-1.80;99.90;;;;;;4868423;29;20504;-76
2021/12/26 09:44:06;;;;;;;1.83;1.00;;;-1.70;99.90;;;;;;4870208;29;20108;-76
2021/12/26 09:46:34;;;;;;;2.43;1.17;;;-1.70;99.90;;;;;;4855296;29;20106;-76
2021/12/26 09:49:01;;;;;;;2.60;1.20;;;-1.60;99.90;;;;;;4842828;29;20037;-77
2021/12/26 09:51:27;;;;;;;3.47;1.43;;;-1.50;99.90;;;;;;4840043;29;20377;-77
2021/12/26 09:53:54;;;;;;;2.60;0.93;;;-1.40;99.90;;;;;;4865112;29;20037;-77
2021/12/26 09:56:21;;;;;;;3.63;1.40;;;-1.20;99.90;;;;;;4868086;29;20033;-76
2021/12/26 09:59:00;;;;;;;3.93;1.47;;;-1.10;99.90;;;;;;4869399;29;20061;-75
2021/12/26 10:01:47;;;;;;;2.10;1.00;;;-0.80;99.90;;;;;;4833061;29;20042;-76
2021/12/26 10:04:16;;;;;;;2.07;0.97;;;-0.60;99.90;;;;;;4852009;29;20034;-76
2021/12/26 10:06:44;;;;;;;2.23;1.27;;;-0.30;99.90;;;;;;4856833;29;20041;-75
2021/12/26 10:09:14;;;;;;;4.30;1.23;;;-0.10;99.90;;;;;;4849765;29;20063;-76
2021/12/26 10:11:45;;;;;;;3.67;1.77;;;0.20;99.90;;;;;;4836686;29;20507;-76
2021/12/26 10:14:15;;;;;;;5.07;1.70;;;0.50;99.90;;;;;;4863012;29;20041;-77
2021/12/26 10:16:48;;;;;;;2.90;1.43;;;0.80;99.90;;;;;;4819164;29;20037;-82
2021/12/26 10:19:14;;;;;;;3.60;1.87;;;1.00;99.90;;;;;;4854660;29;20033;-84
2021/12/26 10:21:45;;;;;;;3.27;1.63;;;1.20;99.90;;;;;;4851447;29;20044;-80
2021/12/26 10:24:30;;;;;;;3.97;1.70;;;1.30;99.90;;;;;;4854549;29;20037;-84
2021/12/26 10:27:13;;;;;;;3.03;1.63;;;1.40;99.90;;;;;;4854649;29;20049;-85
2021/12/26 10:29:42;;;;;;;2.50;1.40;;;1.50;99.90;;;;;;4851859;29;20056;-83
2021/12/26 10:32:14;;;;;;;2.75;1.52;;;1.40;99.90;;;;;;4867166;29;20363;-82
2021/12/26 10:34:56;;;;;;;2.42;1.58;;;1.30;99.90;;;;;;4866439;29;20433;-80
2021/12/26 10:37:38;;;;;;;4.87;1.97;;;1.20;99.90;;;;;;4857004;29;20400;-81
2021/12/26 10:40:10;;;;;;;4.20;2.22;;;1.20;99.90;;;;;;4854938;29;20029;-81
2021/12/26 10:42:43;;;;;;;3.05;1.42;;;1.10;99.90;;;;;;4868122;29;20041;-78
2021/12/26 10:45:13;;;;;;;3.47;1.50;;;1.10;99.90;;;;;;4872347;29;20040;-82
2021/12/26 10:47:44;;;;;;;3.40;1.90;;;0.90;99.90;;;;;;4862011;29;20046;-83
2021/12/26 10:50:20;;;;;;;6.57;2.70;;;0.80;99.90;;;;;;4858684;29;20032;-83
2021/12/26 10:52:53;;;;;;;6.30;2.97;;;0.70;99.90;;;;;;4862159;29;20041;-82
2021/12/26 10:55:27;;;;;;;5.47;2.07;;;0.60;99.90;;;;;;4843872;29;20500;-79
2021/12/26 10:57:55;;;;;;;3.90;1.90;;;0.50;99.90;;;;;;4871930;29;20535;-79
2021/12/26 11:00:24;;;;;;;3.90;2.33;;;0.40;99.90;;;;;;4868620;29;20029;-80
2021/12/26 11:03:03;;;;;;;4.30;2.07;;;0.30;99.90;;;;;;4871257;29;20040;-82
2021/12/26 11:05:35;;;;;;;5.73;2.13;;;0.30;99.90;;;;;;4871180;29;20390;-82
2021/12/26 11:08:07;;;;;;;4.13;2.10;;;0.20;99.90;;;;;;4865700;29;20037;-84
2021/12/26 11:10:40;;;;;;;3.45;2.17;;;0.20;99.90;;;;;;4869200;29;20402;-84
2021/12/26 11:13:15;;;;;;;5.13;2.42;;;0.20;99.90;;;;;;4859505;29;20470;-84
2021/12/26 11:15:42;;;;;;;4.43;1.83;;;0.20;99.90;;;;;;4869427;29;20041;-84
2021/12/26 11:18:12;;;;;;;5.47;1.93;;;0.20;99.90;;;;;;4843669;29;20048;-84
2021/12/26 11:20:47;;;;;;;3.93;1.97;;;0.20;99.90;;;;;;4856814;29;20516;-78
2021/12/26 11:23:17;;;;;;;4.03;2.40;;;0.20;99.90;;;;;;4870276;29;20045;-78
2021/12/26 11:25:54;;;;;;;4.00;1.50;;;0.20;99.90;;;;;;4837145;29;20405;-78
2021/12/26 11:28:27;;;;;;;5.77;2.83;;;0.20;99.90;;;;;;4869185;29;20036;-77
2021/12/26 11:30:59;;;;;;;5.45;2.63;;;0.20;99.90;;;;;;4859812;29;20045;-78
2021/12/26 11:33:26;;;;;;;5.40;3.28;;;0.20;99.90;;;;;;4856221;29;20033;-77
2021/12/26 11:35:55;;;;;;;7.67;3.03;;;0.20;99.90;;;;;;4869785;29;20041;-78
2021/12/26 11:38:26;;;;;;;4.83;2.80;;;0.20;99.90;;;;;;4872997;29;20036;-78
2021/12/26 11:41:26;;;;;;;3.50;2.37;;;0.10;99.90;;;;;;4845871;29;20413;-78
2021/12/26 11:44:43;;;;;;;4.57;2.40;;;0.20;99.90;;;;;;4863103;29;20040;-78
2021/12/26 11:47:41;;;;;;;3.80;1.97;;;0.20;99.90;;;;;;4869150;29;20050;-77
2021/12/26 11:50:53;;;;;;;4.93;3.03;;;0.20;99.90;;;;;;4868297;29;20030;-77
2021/12/26 11:54:21;;;;;;;7.13;3.10;;;0.20;99.90;;;;;;4854051;29;20048;-77
2021/12/26 11:57:02;;;;;;;6.20;3.40;;;0.30;99.90;;;;;;4848401;29;20051;-77
2021/12/26 11:59:50;;;;;;;3.83;2.10;;;0.30;99.90;;;;;;4871565;29;20041;-78
2021/12/26 12:02:38;;;;;;;3.63;2.60;;;0.30;99.90;;;;;;4868152;29;20378;-77
2021/12/26 12:05:20;;;;;;;4.93;2.87;;;0.30;99.90;;;;;;4848787;29;20045;-78
2021/12/26 12:07:51;;;;;;;5.13;3.15;;;0.40;99.90;;;;;;4872275;29;20049;-78
2021/12/26 12:10:31;;;;;;;4.00;2.23;;;0.40;99.90;;;;;;4856313;29;20032;-79
2021/12/26 12:12:58;;;;;;;8.27;5.20;;;0.40;99.90;;;;;;4869061;29;20036;-78
2021/12/26 12:15:45;;;;;;;7.07;4.00;;;0.50;99.90;;;;;;4871223;29;20065;-78
2021/12/26 12:18:33;;;;;;;12.73;7.20;;;0.50;99.90;;;;;;4857595;29;20048;-77
2021/12/26 12:21:11;;;;;;;7.73;4.07;;;0.60;99.90;;;;;;4849978;29;20056;-78
2021/12/26 12:24:04;;;;;;;5.53;3.37;;;0.60;99.90;;;;;;4849146;29;20064;-77
2021/12/26 12:26:37;;;;;;;;;;;0.60;99.90;;;;;;4858513;29;20043;-77
2021/12/26 12:29:03;;;;;;;4.95;3.33;;;0.60;99.90;;;;;;4871243;29;19923;-79
2021/12/26 12:31:30;;;;;;;6.27;3.43;;;0.60;99.90;;;;;;4842303;29;20451;-80
2021/12/26 12:34:15;;;;;;;6.87;3.50;;;0.60;99.90;;;;;;4858096;29;20132;-80
2021/12/26 12:36:44;;;;;;;6.37;3.43;;;0.60;99.90;;;;;;4865278;29;20694;-80
2021/12/26 12:39:22;;;;;;;6.03;3.57;;;0.60;99.90;;;;;;4836999;29;20068;-80
2021/12/26 12:41:54;;;;;;;6.00;3.27;;;0.60;99.90;;;;;;4838716;29;20048;-80
2021/12/26 12:44:31;;;;;;;5.30;3.07;;;0.60;99.90;;;;;;4866119;29;20037;-80
2021/12/26 12:47:03;;;;;;;8.03;3.80;;;0.60;99.90;;;;;;4860586;29;20126;-80
2021/12/26 12:49:52;;;;;;;7.15;3.67;;;0.70;99.90;;;;;;4842752;29;20040;-80
2021/12/26 12:52:59;;;;;;;5.50;3.17;;;0.80;99.90;;;;;;4866881;29;20026;-80
2021/12/26 12:55:49;;;;;;;7.63;3.60;;;0.80;99.90;;;;;;4856854;29;20033;-80
2021/12/26 12:58:21;;;;;;;5.83;3.40;;;0.80;99.90;;;;;;4860119;29;20052;-79
2021/12/26 13:00:49;;;;;;;6.35;4.50;;;0.90;99.90;;;;;;4869317;29;20497;-78
2021/12/26 13:03:18;;;;;;;7.53;3.83;;;0.90;99.90;;;;;;4856067;29;20051;-77
2021/12/26 13:05:46;;;;;;;6.10;3.67;;;1.00;99.90;;;;;;4851828;29;20446;-78
2021/12/26 13:08:16;;;;;;;6.67;3.83;;;1.10;99.90;;;;;;4855706;29;20387;-80
2021/12/26 13:10:56;;;;;;;6.37;3.80;;;1.20;99.90;;;;;;4862144;29;20037;-79
2021/12/26 13:13:24;;;;;;;7.23;4.20;;;1.20;99.90;;;;;;4838862;29;20043;-77
2021/12/26 13:16:00;;;;;;;8.33;4.40;;;1.20;99.90;;;;;;4852725;29;20056;-77
2021/12/26 13:18:36;;;;;;;9.33;5.33;;;1.20;99.90;;;;;;4866411;29;20572;-78
2021/12/26 13:21:09;;;;;;;5.93;3.70;;;1.30;99.90;;;;;;4852437;29;20043;-78